Latest METARs, TAFs and NOTAMs for SKCL


---------------------------------------------------------------------------
	(OBSERVATIONS)
SKCL 240600Z VRB02KT 9999 FEW040 BKN120 20/17 A3004=
SKCL 240500Z VRB02KT 9999 FEW040 SCT120 20/17 A3005=
SKCL 240400Z 01005KT 9999 FEW040 BKN120 22/17 A3006=
---------------------------------------------------------------------------
	(TERMINAL AREA FORECAST)
SKCL 240500Z 2406/2506 01005KT 9999 FEW040 BKN120 TEMPO
    2406/24098 8000 VCSH DZ
    BECMG 2419/2420 34010KT TEMPO 2421/2424 7000 DZRA SCT020TCU
    TX31/2419Z
    TN19/2411Z=
---------------------------------------------------------------------------
	(NOTAMS)


SKCL A1205/16 E)TRIGGER NOTAM - PERM AIRAC AIP SUP A08/16 WEF
    23JUN2016 UPDATE INFO CTA CALI REF. AIP ENR 3.1, ENR 3.2,
    ENR 4.3, ENR CTA CALI. 23 JUN 00:00 2016 UNTIL PERM. CREATED:
    19 APR 06:55 2016

SKCL A1396/16 RCLL RWY 01/19 U/S. 27 MAY 00:00 2016 UNTIL 27
    JAN 23:59 2017. CREATED: 04 MAY 18:24 2016

SKCL A1620/16 SEQUENCED FLG LGT RWY 01 U/S. 25 MAY 22:10 2016
    UNTIL 25 AUG 23:59 2016 ESTIMATED. CREATED: 25 MAY 22:08
    2016

SKCL A1635/16 LAUNCHING RADIOSONDE RDO 1NM CENTRO 0333N07623W.
    27 MAY 17:08 2016 UNTIL PERM. CREATED: 27 MAY 17:10 2016

SKCL A1718/16 APN INTL LTD, IS RESTRICTE OPS OF ACFT AVIATION
    GEN, ACFT AVIATION GEN BE RELOCATED IN APN OF DESCONGESTION,CARGO
    AND AVIATION GEN. -CREW MUST INFORM THE CECOA WHEN INTENDED
    TO OVERNIGHT AND DATE OF DEP. TEL. (57) 3155779760 - (57-2)
    2800111. 02 JUN 21:06 2016 UNTIL 02 SEP 20:00 2016 ESTIMATED.
    CREATED: 02 JUN 21:32 2016

SKCL A1720/16 FRANJA RWY 01/19 FRANJA TWY A,B,C,D,E,F WIP EXER
    CTN. 02 JUN 21:48 2016 UNTIL 02 SEP 20:00 2016 ESTIMATED.
    CREATED: 02 JUN 21:49 2016

SKCL A1721/16 APN, CARGO APN AND DECONGESTION ZONE WIP, EXER
    CTN. H24, 02 JUN 22:10 2016 UNTIL 02 SEP 20:00 2016. CREATED:
    02 JUN 22:12 2016

SKCL A1778/16 HELIPORT H1, H2, H3 CLSD FOR ALL NGT OPS. 07 JUN
    20:45 2016 UNTIL 02 SEP 23:59 2016 ESTIMATED. CREATED: 07
    JUN 20:47 2016

SKCL A2047/16 ALS CAT I RWY 01 U/S. H24, 08 AUG 06:00 2016 UNTIL
    15 AUG 10:15 2016. CREATED: 24 JUN 19:12 2016

SKCL A2123/16 AD CLSD 14 SEP 17:00 UNTIL 14 SEP 18:00 1700-1800

SKCL A2274/16 ACFT STAND NR 1 INSTL COORD 033209N0762310W AVBL
    ONLY ACFT CAT C OR LOWER ACFT ENTERING AND EXITING MUST BE
    TOWED. 13 JUL 00:00 2016 UNTIL 13 OCT 23:59 2016. CREATED:
    12 JUL 22:00 2016

SKCL A2382/16 TWY A BTN TWY C AND TWY D CLSD. H24, 18 JUL 22:40
    2016 UNTIL 07 SEP 13:00 2016. CREATED: 18 JUL 22:38 2016

SKCL A2386/16 TWY A BTN RWY 01 AND TWY B CLSD. 19 JUL 02:34 2016
    UNTIL 31 AUG 10:15 2016. CREATED: 19 JUL 02:43 2016

SKCL A2387/16 TWY A BTN TWY D AND TWY E,HOLDING POINT INSTALLED.
    H24, 19 JUL 12:45 2016 UNTIL 07 SEP 10:15 2016. CREATED:
    19 JUL 13:14 2016

SKCL A2391/16 TRIGGER NOTAM - PERM AIP SUP A21/16 WEF 19JUL2016
    RUNWAY TRAINING CONSTRAINTS REF. AIP SKCL AD 2.20. 19 JUL
    22:36 2016 UNTIL PERM. CREATED: 19 JUL 22:39 2016

SKCL A3216/15 OBST INSTL DUE TO WIP, CRANE PRESENCE HGT 30M,
    RDO 50M NXT COORD: 033206.84076N0762312.59357W- 033210.13714N0762312.10406W.
    H24, 16 MAY 00:00 2016 UNTIL 16 AUG 23:59 2016. CREATED:
    26 NOV 14:16 2015

SKCL A3217/15 OBST INSTL DUE TO WIP, CRANE PRESENCE HGT 30M,
    RDO 50M NXT COORD: 033206.84076N0762312.59357W- 033210.13714N0762312.10406W.
    H24, 17 AUG 00:00 2016 UNTIL 30 NOV 23:59 2016. CREATED:
    26 NOV 14:23 2015

SKCL A3225/15 RWY 01/19 CLSD. DLY BTN 0600-1015, 22 JUL 06:00
    2016 UNTIL 22 OCT 10:15 2016. CREATED: 26 NOV 17:10 2015

SKCL A3226/15 RWY 01/19 CLSD. DLY BTN 0600-1015, 23 OCT 06:00
    2016 UNTIL 28 FEB 10:15 2017. CREATED: 26 NOV 17:19 2015

SKCL V0158/16 [US DOD PROCEDURAL NOTAM] STANDARD INSTRUMENT DEPARTURE
    (SID) CHANGED BUN 6C DEPARTURE RENAME TO BUN 7C DEPARTURE,
    PLANVIEW REVISE HDG 284 FROM SIGIR CRP TO BUN TO READ R-107
    BUN (TRACK 287), DRD CHANGE TO REVISE BUN6C TO 7C, CLIMB
    STRAIGHT AHEAD TO PL NDB, 015 BEARING TO INTERCEPT BUN VOR/DME
    R-104 AT OR ABOVE 6500, TURN LEFT (220 KIAS MAX) VIA BUN
    R-107 TO BUN VOR/DME. CROSS SIGIR/CLO R-2335/24 DME AT OR
    ABOVE 11,000. 21 JUL 22:27 2016 UNTIL 14 SEP 23:59 2016.
    CREATED: 21 JUL 22:27 2016

---------------------------------------------------------------------------